sensor_id;sensor_type;location;lat;lon;timestamp;P1;durP1;ratioP1;P2;durP2;ratioP2
64682;SDS011;51107;47.652;19.016;2023-04-03T00:01:28;1.30;;;1.20;;
64682;SDS011;51107;47.652;19.016;2023-04-03T00:03:56;3.60;;;1.40;;
64682;SDS011;51107;47.652;19.016;2023-04-03T00:06:25;1.02;;;0.80;;
64682;SDS011;51107;47.652;19.016;2023-04-03T00:08:53;1.15;;;0.62;;
64682;SDS011;51107;47.652;19.016;2023-04-03T00:11:22;1.52;;;1.20;;
64682;SDS011;51107;47.652;19.016;2023-04-03T00:13:51;4.78;;;1.75;;
64682;SDS011;51107;47.652;19.016;2023-04-03T00:16:19;2.25;;;1.50;;
64682;SDS011;51107;47.652;19.016;2023-04-03T00:18:48;1.77;;;1.12;;
64682;SDS011;51107;47.652;19.016;2023-04-03T00:21:17;1.77;;;1.27;;
64682;SDS011;51107;47.652;19.016;2023-04-03T00:23:45;1.00;;;0.82;;
64682;SDS011;51107;47.652;19.016;2023-04-03T00:26:13;2.15;;;0.90;;
64682;SDS011;51107;47.652;19.016;2023-04-03T00:28:42;1.42;;;0.88;;
64682;SDS011;51107;47.652;19.016;2023-04-03T00:31:10;1.35;;;0.90;;
64682;SDS011;51107;47.652;19.016;2023-04-03T00:33:42;1.80;;;1.20;;
64682;SDS011;51107;47.652;19.016;2023-04-03T00:36:10;0.98;;;0.65;;
64682;SDS011;51107;47.652;19.016;2023-04-03T00:38:40;0.60;;;0.60;;
64682;SDS011;51107;47.652;19.016;2023-04-03T00:41:09;1.50;;;1.30;;
64682;SDS011;51107;47.652;19.016;2023-04-03T00:43:37;1.05;;;0.90;;
64682;SDS011;51107;47.652;19.016;2023-04-03T00:46:05;2.42;;;1.05;;
64682;SDS011;51107;47.652;19.016;2023-04-03T00:48:36;3.92;;;1.20;;
64682;SDS011;51107;47.652;19.016;2023-04-03T00:51:16;2.45;;;1.75;;
64682;SDS011;51107;47.652;19.016;2023-04-03T00:54:08;1.10;;;0.70;;
64682;SDS011;51107;47.652;19.016;2023-04-03T00:56:36;1.95;;;1.42;;
64682;SDS011;51107;47.652;19.016;2023-04-03T00:59:07;0.90;;;0.52;;
64682;SDS011;51107;47.652;19.016;2023-04-03T01:01:39;1.00;;;0.85;;
64682;SDS011;51107;47.652;19.016;2023-04-03T01:06:56;1.08;;;0.80;;
64682;SDS011;51107;47.652;19.016;2023-04-03T01:09:29;1.33;;;0.75;;
64682;SDS011;51107;47.652;19.016;2023-04-03T01:14:50;3.60;;;0.90;;
64682;SDS011;51107;47.652;19.016;2023-04-03T01:25:38;3.25;;;0.88;;
64682;SDS011;51107;47.652;19.016;2023-04-03T01:28:10;0.70;;;0.70;;
64682;SDS011;51107;47.652;19.016;2023-04-03T01:33:19;3.22;;;1.12;;
64682;SDS011;51107;47.652;19.016;2023-04-03T01:35:48;0.88;;;0.80;;
64682;SDS011;51107;47.652;19.016;2023-04-03T01:38:16;0.77;;;0.68;;
64682;SDS011;51107;47.652;19.016;2023-04-03T01:40:44;2.15;;;1.08;;
64682;SDS011;51107;47.652;19.016;2023-04-03T01:43:13;1.05;;;0.95;;
64682;SDS011;51107;47.652;19.016;2023-04-03T01:45:41;1.20;;;0.80;;
64682;SDS011;51107;47.652;19.016;2023-04-03T01:48:10;0.52;;;0.52;;
64682;SDS011;51107;47.652;19.016;2023-04-03T01:50:39;1.02;;;0.77;;
64682;SDS011;51107;47.652;19.016;2023-04-03T01:53:07;0.52;;;0.52;;
64682;SDS011;51107;47.652;19.016;2023-04-03T01:55:35;1.27;;;0.70;;
64682;SDS011;51107;47.652;19.016;2023-04-03T01:58:04;1.45;;;0.70;;
64682;SDS011;51107;47.652;19.016;2023-04-03T02:00:32;1.70;;;1.02;;
64682;SDS011;51107;47.652;19.016;2023-04-03T02:03:02;0.80;;;0.75;;
64682;SDS011;51107;47.652;19.016;2023-04-03T02:05:30;0.82;;;0.60;;
64682;SDS011;51107;47.652;19.016;2023-04-03T02:07:59;4.60;;;1.33;;
64682;SDS011;51107;47.652;19.016;2023-04-03T02:10:28;0.95;;;0.62;;
64682;SDS011;51107;47.652;19.016;2023-04-03T02:12:57;0.73;;;0.65;;
64682;SDS011;51107;47.652;19.016;2023-04-03T02:15:25;1.20;;;0.77;;
64682;SDS011;51107;47.652;19.016;2023-04-03T02:17:54;1.05;;;0.70;;
64682;SDS011;51107;47.652;19.016;2023-04-03T02:20:23;1.17;;;0.70;;
64682;SDS011;51107;47.652;19.016;2023-04-03T02:22:51;1.27;;;0.75;;
64682;SDS011;51107;47.652;19.016;2023-04-03T02:25:20;1.27;;;0.95;;
64682;SDS011;51107;47.652;19.016;2023-04-03T02:27:48;0.93;;;0.70;;
64682;SDS011;51107;47.652;19.016;2023-04-03T02:30:16;0.75;;;0.50;;
64682;SDS011;51107;47.652;19.016;2023-04-03T02:32:45;0.85;;;0.75;;
64682;SDS011;51107;47.652;19.016;2023-04-03T02:35:13;1.98;;;0.73;;
64682;SDS011;51107;47.652;19.016;2023-04-03T02:37:42;1.62;;;1.10;;
64682;SDS011;51107;47.652;19.016;2023-04-03T02:40:11;2.40;;;0.90;;
64682;SDS011;51107;47.652;19.016;2023-04-03T02:42:39;1.35;;;0.73;;
64682;SDS011;51107;47.652;19.016;2023-04-03T02:45:08;0.60;;;0.60;;
64682;SDS011;51107;47.652;19.016;2023-04-03T02:47:36;1.77;;;0.95;;
64682;SDS011;51107;47.652;19.016;2023-04-03T02:50:05;1.42;;;0.88;;
64682;SDS011;51107;47.652;19.016;2023-04-03T02:52:33;1.33;;;0.85;;
64682;SDS011;51107;47.652;19.016;2023-04-03T02:55:02;1.33;;;1.05;;
64682;SDS011;51107;47.652;19.016;2023-04-03T02:57:31;2.25;;;1.10;;
64682;SDS011;51107;47.652;19.016;2023-04-03T02:59:59;1.70;;;0.98;;
64682;SDS011;51107;47.652;19.016;2023-04-03T03:02:28;1.00;;;0.85;;
64682;SDS011;51107;47.652;19.016;2023-04-03T03:04:57;1.75;;;1.15;;
64682;SDS011;51107;47.652;19.016;2023-04-03T03:07:25;1.00;;;0.70;;
64682;SDS011;51107;47.652;19.016;2023-04-03T03:09:54;1.77;;;1.10;;
64682;SDS011;51107;47.652;19.016;2023-04-03T03:12:22;0.65;;;0.52;;
64682;SDS011;51107;47.652;19.016;2023-04-03T03:14:51;0.47;;;0.40;;
64682;SDS011;51107;47.652;19.016;2023-04-03T03:17:20;0.60;;;0.60;;
64682;SDS011;51107;47.652;19.016;2023-04-03T03:19:48;1.23;;;0.90;;
64682;SDS011;51107;47.652;19.016;2023-04-03T03:22:16;0.75;;;0.50;;
64682;SDS011;51107;47.652;19.016;2023-04-03T03:24:45;1.92;;;0.82;;
64682;SDS011;51107;47.652;19.016;2023-04-03T03:27:13;0.75;;;0.68;;
64682;SDS011;51107;47.652;19.016;2023-04-03T03:29:41;1.40;;;0.88;;
64682;SDS011;51107;47.652;19.016;2023-04-03T03:32:11;0.70;;;0.50;;
64682;SDS011;51107;47.652;19.016;2023-04-03T03:34:39;1.65;;;0.70;;
64682;SDS011;51107;47.652;19.016;2023-04-03T03:37:08;0.82;;;0.80;;
64682;SDS011;51107;47.652;19.016;2023-04-03T03:39:36;1.42;;;1.08;;
64682;SDS011;51107;47.652;19.016;2023-04-03T03:42:05;0.43;;;0.43;;
64682;SDS011;51107;47.652;19.016;2023-04-03T03:44:33;0.90;;;0.55;;
64682;SDS011;51107;47.652;19.016;2023-04-03T03:47:02;6.35;;;0.95;;
64682;SDS011;51107;47.652;19.016;2023-04-03T03:49:30;1.67;;;1.23;;
64682;SDS011;51107;47.652;19.016;2023-04-03T03:51:59;0.62;;;0.62;;
64682;SDS011;51107;47.652;19.016;2023-04-03T03:54:28;1.60;;;0.60;;
64682;SDS011;51107;47.652;19.016;2023-04-03T03:56:56;1.62;;;0.70;;
64682;SDS011;51107;47.652;19.016;2023-04-03T03:59:24;1.05;;;0.62;;
64682;SDS011;51107;47.652;19.016;2023-04-03T04:01:53;0.55;;;0.55;;
64682;SDS011;51107;47.652;19.016;2023-04-03T04:04:22;1.15;;;0.62;;
64682;SDS011;51107;47.652;19.016;2023-04-03T04:06:50;0.50;;;0.50;;
64682;SDS011;51107;47.652;19.016;2023-04-03T04:09:20;1.20;;;0.60;;
64682;SDS011;51107;47.652;19.016;2023-04-03T04:11:49;1.17;;;0.60;;
64682;SDS011;51107;47.652;19.016;2023-04-03T04:14:18;0.70;;;0.55;;
64682;SDS011;51107;47.652;19.016;2023-04-03T04:16:48;0.37;;;0.37;;
64682;SDS011;51107;47.652;19.016;2023-04-03T04:19:18;0.60;;;0.50;;
64682;SDS011;51107;47.652;19.016;2023-04-03T04:21:46;0.50;;;0.40;;
64682;SDS011;51107;47.652;19.016;2023-04-03T04:24:15;1.37;;;0.90;;
64682;SDS011;51107;47.652;19.016;2023-04-03T04:26:44;0.62;;;0.35;;
64682;SDS011;51107;47.652;19.016;2023-04-03T04:29:12;1.10;;;0.73;;
64682;SDS011;51107;47.652;19.016;2023-04-03T04:31:41;0.73;;;0.43;;
64682;SDS011;51107;47.652;19.016;2023-04-03T04:34:09;0.75;;;0.75;;
64682;SDS011;51107;47.652;19.016;2023-04-03T04:36:38;0.98;;;0.57;;
64682;SDS011;51107;47.652;19.016;2023-04-03T04:39:07;0.35;;;0.35;;
64682;SDS011;51107;47.652;19.016;2023-04-03T04:41:36;2.10;;;0.50;;
64682;SDS011;51107;47.652;19.016;2023-04-03T04:44:05;0.30;;;0.30;;
64682;SDS011;51107;47.652;19.016;2023-04-03T04:46:33;0.73;;;0.50;;
64682;SDS011;51107;47.652;19.016;2023-04-03T04:49:02;0.85;;;0.57;;
64682;SDS011;51107;47.652;19.016;2023-04-03T04:51:31;0.50;;;0.50;;
64682;SDS011;51107;47.652;19.016;2023-04-03T04:54:11;0.85;;;0.55;;
64682;SDS011;51107;47.652;19.016;2023-04-03T04:56:40;0.20;;;0.20;;
64682;SDS011;51107;47.652;19.016;2023-04-03T04:59:08;1.40;;;0.93;;
64682;SDS011;51107;47.652;19.016;2023-04-03T05:01:37;0.77;;;0.73;;
64682;SDS011;51107;47.652;19.016;2023-04-03T05:04:06;1.23;;;0.70;;
64682;SDS011;51107;47.652;19.016;2023-04-03T05:06:35;0.20;;;0.20;;
64682;SDS011;51107;47.652;19.016;2023-04-03T05:09:04;0.43;;;0.43;;
64682;SDS011;51107;47.652;19.016;2023-04-03T05:11:33;0.50;;;0.50;;
64682;SDS011;51107;47.652;19.016;2023-04-03T05:14:01;1.35;;;0.88;;
64682;SDS011;51107;47.652;19.016;2023-04-03T05:16:33;3.70;;;0.93;;
64682;SDS011;51107;47.652;19.016;2023-04-03T05:19:03;1.27;;;0.80;;
64682;SDS011;51107;47.652;19.016;2023-04-03T05:21:31;1.12;;;0.60;;
64682;SDS011;51107;47.652;19.016;2023-04-03T05:24:02;1.67;;;0.77;;
64682;SDS011;51107;47.652;19.016;2023-04-03T05:26:32;0.90;;;0.40;;
64682;SDS011;51107;47.652;19.016;2023-04-03T05:29:01;1.35;;;0.57;;
64682;SDS011;51107;47.652;19.016;2023-04-03T05:31:30;0.82;;;0.40;;
64682;SDS011;51107;47.652;19.016;2023-04-03T05:33:59;1.08;;;0.55;;
64682;SDS011;51107;47.652;19.016;2023-04-03T05:36:28;1.30;;;1.20;;
64682;SDS011;51107;47.652;19.016;2023-04-03T05:38:56;0.90;;;0.80;;
64682;SDS011;51107;47.652;19.016;2023-04-03T05:41:25;1.00;;;0.57;;
64682;SDS011;51107;47.652;19.016;2023-04-03T05:43:54;1.73;;;0.65;;
64682;SDS011;51107;47.652;19.016;2023-04-03T05:46:22;0.82;;;0.60;;
64682;SDS011;51107;47.652;19.016;2023-04-03T05:48:52;0.70;;;0.60;;
64682;SDS011;51107;47.652;19.016;2023-04-03T05:51:25;1.05;;;0.93;;
64682;SDS011;51107;47.652;19.016;2023-04-03T05:54:41;0.95;;;0.40;;
64682;SDS011;51107;47.652;19.016;2023-04-03T05:56:54;0.88;;;0.47;;
64682;SDS011;51107;47.652;19.016;2023-04-03T05:59:22;0.32;;;0.32;;
64682;SDS011;51107;47.652;19.016;2023-04-03T06:01:51;1.05;;;0.95;;
64682;SDS011;51107;47.652;19.016;2023-04-03T06:04:20;0.40;;;0.37;;
64682;SDS011;51107;47.652;19.016;2023-04-03T06:06:50;0.50;;;0.43;;
64682;SDS011;51107;47.652;19.016;2023-04-03T06:09:21;0.50;;;0.45;;
64682;SDS011;51107;47.652;19.016;2023-04-03T06:11:51;1.30;;;0.73;;
64682;SDS011;51107;47.652;19.016;2023-04-03T06:14:22;0.30;;;0.30;;
64682;SDS011;51107;47.652;19.016;2023-04-03T06:16:50;1.33;;;0.47;;
64682;SDS011;51107;47.652;19.016;2023-04-03T06:19:20;0.60;;;0.60;;
64682;SDS011;51107;47.652;19.016;2023-04-03T06:21:50;0.43;;;0.43;;
64682;SDS011;51107;47.652;19.016;2023-04-03T06:24:18;0.37;;;0.35;;
64682;SDS011;51107;47.652;19.016;2023-04-03T06:26:49;0.95;;;0.30;;
64682;SDS011;51107;47.652;19.016;2023-04-03T06:29:19;0.35;;;0.30;;
64682;SDS011;51107;47.652;19.016;2023-04-03T06:31:48;0.85;;;0.60;;
64682;SDS011;51107;47.652;19.016;2023-04-03T06:34:18;1.62;;;0.60;;
64682;SDS011;51107;47.652;19.016;2023-04-03T06:36:46;3.97;;;0.95;;
64682;SDS011;51107;47.652;19.016;2023-04-03T06:39:15;1.10;;;0.73;;
64682;SDS011;51107;47.652;19.016;2023-04-03T06:41:46;1.35;;;0.80;;
64682;SDS011;51107;47.652;19.016;2023-04-03T06:44:14;0.28;;;0.28;;
64682;SDS011;51107;47.652;19.016;2023-04-03T06:46:43;0.40;;;0.40;;
64682;SDS011;51107;47.652;19.016;2023-04-03T06:49:14;0.47;;;0.30;;
64682;SDS011;51107;47.652;19.016;2023-04-03T06:51:43;0.85;;;0.52;;
64682;SDS011;51107;47.652;19.016;2023-04-03T06:54:11;0.35;;;0.35;;
64682;SDS011;51107;47.652;19.016;2023-04-03T06:56:40;1.75;;;0.73;;
64682;SDS011;51107;47.652;19.016;2023-04-03T06:59:08;0.57;;;0.57;;
64682;SDS011;51107;47.652;19.016;2023-04-03T07:01:38;0.73;;;0.50;;
64682;SDS011;51107;47.652;19.016;2023-04-03T07:04:07;0.25;;;0.25;;
64682;SDS011;51107;47.652;19.016;2023-04-03T07:06:36;0.65;;;0.40;;
64682;SDS011;51107;47.652;19.016;2023-04-03T07:09:04;0.32;;;0.32;;
64682;SDS011;51107;47.652;19.016;2023-04-03T07:11:32;0.40;;;0.40;;
64682;SDS011;51107;47.652;19.016;2023-04-03T07:14:01;0.57;;;0.22;;
64682;SDS011;51107;47.652;19.016;2023-04-03T07:16:29;3.40;;;0.40;;
64682;SDS011;51107;47.652;19.016;2023-04-03T07:19:01;0.90;;;0.57;;
64682;SDS011;51107;47.652;19.016;2023-04-03T07:21:31;1.98;;;0.37;;
64682;SDS011;51107;47.652;19.016;2023-04-03T07:23:59;0.60;;;0.40;;
64682;SDS011;51107;47.652;19.016;2023-04-03T07:26:28;0.10;;;0.10;;
64682;SDS011;51107;47.652;19.016;2023-04-03T07:28:56;0.50;;;0.40;;
64682;SDS011;51107;47.652;19.016;2023-04-03T07:31:26;0.77;;;0.55;;
64682;SDS011;51107;47.652;19.016;2023-04-03T07:33:54;0.37;;;0.28;;
64682;SDS011;51107;47.652;19.016;2023-04-03T07:36:22;0.47;;;0.20;;
64682;SDS011;51107;47.652;19.016;2023-04-03T07:38:51;4.18;;;0.40;;
64682;SDS011;51107;47.652;19.016;2023-04-03T07:41:20;0.30;;;0.30;;
64682;SDS011;51107;47.652;19.016;2023-04-03T07:43:50;1.00;;;0.35;;
64682;SDS011;51107;47.652;19.016;2023-04-03T07:46:20;0.37;;;0.22;;
64682;SDS011;51107;47.652;19.016;2023-04-03T07:48:48;0.85;;;0.43;;
64682;SDS011;51107;47.652;19.016;2023-04-03T07:51:17;0.35;;;0.30;;
64682;SDS011;51107;47.652;19.016;2023-04-03T07:53:45;0.85;;;0.40;;
64682;SDS011;51107;47.652;19.016;2023-04-03T07:56:14;0.30;;;0.28;;
64682;SDS011;51107;47.652;19.016;2023-04-03T07:58:42;0.55;;;0.40;;
64682;SDS011;51107;47.652;19.016;2023-04-03T08:01:11;0.43;;;0.20;;
64682;SDS011;51107;47.652;19.016;2023-04-03T08:03:40;0.10;;;0.10;;
64682;SDS011;51107;47.652;19.016;2023-04-03T08:06:08;1.87;;;0.50;;
64682;SDS011;51107;47.652;19.016;2023-04-03T08:08:43;0.20;;;0.20;;
64682;SDS011;51107;47.652;19.016;2023-04-03T08:11:11;0.43;;;0.22;;
64682;SDS011;51107;47.652;19.016;2023-04-03T08:13:40;0.40;;;0.40;;
64682;SDS011;51107;47.652;19.016;2023-04-03T08:16:11;0.65;;;0.40;;
64682;SDS011;51107;47.652;19.016;2023-04-03T08:18:41;0.47;;;0.20;;
64682;SDS011;51107;47.652;19.016;2023-04-03T08:21:10;0.85;;;0.40;;
64682;SDS011;51107;47.652;19.016;2023-04-03T08:23:41;0.25;;;0.25;;
64682;SDS011;51107;47.652;19.016;2023-04-03T08:26:11;0.62;;;0.62;;
64682;SDS011;51107;47.652;19.016;2023-04-03T08:28:41;0.20;;;0.10;;
64682;SDS011;51107;47.652;19.016;2023-04-03T08:31:11;0.40;;;0.35;;
64682;SDS011;51107;47.652;19.016;2023-04-03T08:33:41;0.88;;;0.43;;
64682;SDS011;51107;47.652;19.016;2023-04-03T08:36:18;0.15;;;0.15;;
64682;SDS011;51107;47.652;19.016;2023-04-03T08:38:51;0.30;;;0.20;;
64682;SDS011;51107;47.652;19.016;2023-04-03T08:41:29;0.30;;;0.30;;
64682;SDS011;51107;47.652;19.016;2023-04-03T08:44:11;0.17;;;0.17;;
64682;SDS011;51107;47.652;19.016;2023-04-03T08:51:59;0.55;;;0.30;;
64682;SDS011;51107;47.652;19.016;2023-04-03T08:54:35;1.15;;;0.17;;
64682;SDS011;51107;47.652;19.016;2023-04-03T08:57:10;0.32;;;0.32;;
64682;SDS011;51107;47.652;19.016;2023-04-03T08:59:40;0.37;;;0.37;;
64682;SDS011;51107;47.652;19.016;2023-04-03T09:02:22;0.30;;;0.20;;
64682;SDS011;51107;47.652;19.016;2023-04-03T09:04:55;0.52;;;0.30;;
64682;SDS011;51107;47.652;19.016;2023-04-03T09:07:30;0.40;;;0.40;;
64682;SDS011;51107;47.652;19.016;2023-04-03T09:10:18;0.60;;;0.40;;
64682;SDS011;51107;47.652;19.016;2023-04-03T09:12:59;0.30;;;0.20;;
64682;SDS011;51107;47.652;19.016;2023-04-03T09:15:35;0.20;;;0.20;;
64682;SDS011;51107;47.652;19.016;2023-04-03T09:21:01;0.37;;;0.30;;
64682;SDS011;51107;47.652;19.016;2023-04-03T09:26:14;0.62;;;0.40;;
64682;SDS011;51107;47.652;19.016;2023-04-03T09:28:46;0.65;;;0.35;;
64682;SDS011;51107;47.652;19.016;2023-04-03T09:31:25;0.17;;;0.10;;
64682;SDS011;51107;47.652;19.016;2023-04-03T09:33:59;0.30;;;0.30;;
64682;SDS011;51107;47.652;19.016;2023-04-03T09:39:22;0.57;;;0.40;;
64682;SDS011;51107;47.652;19.016;2023-04-03T09:42:02;0.98;;;0.32;;
64682;SDS011;51107;47.652;19.016;2023-04-03T09:47:17;0.10;;;0.10;;
64682;SDS011;51107;47.652;19.016;2023-04-03T09:49:51;0.62;;;0.40;;
64682;SDS011;51107;47.652;19.016;2023-04-03T09:52:37;0.30;;;0.30;;
64682;SDS011;51107;47.652;19.016;2023-04-03T09:55:08;0.10;;;0.10;;
64682;SDS011;51107;47.652;19.016;2023-04-03T09:57:41;0.10;;;0.10;;
64682;SDS011;51107;47.652;19.016;2023-04-03T10:02:54;0.10;;;0.10;;
64682;SDS011;51107;47.652;19.016;2023-04-03T10:05:44;0.10;;;0.10;;
64682;SDS011;51107;47.652;19.016;2023-04-03T10:08:19;0.22;;;0.20;;
64682;SDS011;51107;47.652;19.016;2023-04-03T10:10:48;0.30;;;0.30;;
64682;SDS011;51107;47.652;19.016;2023-04-03T10:13:52;0.10;;;0.10;;
64682;SDS011;51107;47.652;19.016;2023-04-03T10:16:28;0.30;;;0.30;;
64682;SDS011;51107;47.652;19.016;2023-04-03T10:19:03;0.40;;;0.40;;
64682;SDS011;51107;47.652;19.016;2023-04-03T10:21:51;0.40;;;0.40;;
64682;SDS011;51107;47.652;19.016;2023-04-03T10:27:20;1.62;;;0.85;;
64682;SDS011;51107;47.652;19.016;2023-04-03T10:30:48;0.32;;;0.28;;
64682;SDS011;51107;47.652;19.016;2023-04-03T10:33:25;0.25;;;0.17;;
64682;SDS011;51107;47.652;19.016;2023-04-03T10:42:03;0.15;;;0.15;;
64682;SDS011;51107;47.652;19.016;2023-04-03T10:56:11;0.67;;;0.33;;
64682;SDS011;51107;47.652;19.016;2023-04-03T10:59:18;0.20;;;0.20;;
64682;SDS011;51107;47.652;19.016;2023-04-03T11:01:55;0.43;;;0.43;;
64682;SDS011;51107;47.652;19.016;2023-04-03T11:04:28;0.57;;;0.40;;
64682;SDS011;51107;47.652;19.016;2023-04-03T11:09:40;0.77;;;0.45;;
64682;SDS011;51107;47.652;19.016;2023-04-03T11:12:17;1.30;;;0.37;;
64682;SDS011;51107;47.652;19.016;2023-04-03T11:15:11;0.62;;;0.10;;
64682;SDS011;51107;47.652;19.016;2023-04-03T11:17:53;0.20;;;0.10;;
64682;SDS011;51107;47.652;19.016;2023-04-03T11:20:26;0.30;;;0.22;;
64682;SDS011;51107;47.652;19.016;2023-04-03T11:25:50;0.40;;;0.30;;
64682;SDS011;51107;47.652;19.016;2023-04-03T11:28:21;0.17;;;0.17;;
64682;SDS011;51107;47.652;19.016;2023-04-03T11:36:25;0.20;;;0.20;;
64682;SDS011;51107;47.652;19.016;2023-04-03T11:42:12;0.30;;;0.30;;
64682;SDS011;51107;47.652;19.016;2023-04-03T11:44:43;0.10;;;0.10;;
64682;SDS011;51107;47.652;19.016;2023-04-03T11:47:12;0.30;;;0.30;;
64682;SDS011;51107;47.652;19.016;2023-04-03T11:50:31;0.20;;;0.20;;
64682;SDS011;51107;47.652;19.016;2023-04-03T11:58:10;0.20;;;0.20;;
64682;SDS011;51107;47.652;19.016;2023-04-03T12:00:48;0.10;;;0.10;;
64682;SDS011;51107;47.652;19.016;2023-04-03T12:03:55;0.47;;;0.10;;
64682;SDS011;51107;47.652;19.016;2023-04-03T12:09:01;0.50;;;0.40;;
64682;SDS011;51107;47.652;19.016;2023-04-03T12:11:33;5.68;;;0.43;;
64682;SDS011;51107;47.652;19.016;2023-04-03T12:14:05;0.20;;;0.20;;
64682;SDS011;51107;47.652;19.016;2023-04-03T12:16:45;0.40;;;0.32;;
64682;SDS011;51107;47.652;19.016;2023-04-03T12:22:07;0.82;;;0.40;;
64682;SDS011;51107;47.652;19.016;2023-04-03T12:24:39;2.12;;;0.60;;
64682;SDS011;51107;47.652;19.016;2023-04-03T12:46:18;0.32;;;0.30;;
64682;SDS011;51107;47.652;19.016;2023-04-03T12:48:50;1.23;;;0.52;;
64682;SDS011;51107;47.652;19.016;2023-04-03T12:54:26;0.43;;;0.37;;
64682;SDS011;51107;47.652;19.016;2023-04-03T12:57:19;0.15;;;0.15;;
64682;SDS011;51107;47.652;19.016;2023-04-03T12:59:51;1.20;;;0.50;;
64682;SDS011;51107;47.652;19.016;2023-04-03T13:02:27;4.53;;;0.22;;
64682;SDS011;51107;47.652;19.016;2023-04-03T13:05:09;0.45;;;0.35;;
64682;SDS011;51107;47.652;19.016;2023-04-03T13:07:44;0.45;;;0.37;;
64682;SDS011;51107;47.652;19.016;2023-04-03T13:10:19;0.65;;;0.30;;
64682;SDS011;51107;47.652;19.016;2023-04-03T13:13:08;0.40;;;0.35;;
64682;SDS011;51107;47.652;19.016;2023-04-03T13:15:42;0.40;;;0.28;;
64682;SDS011;51107;47.652;19.016;2023-04-03T13:18:27;0.08;;;0.08;;
64682;SDS011;51107;47.652;19.016;2023-04-03T13:23:36;0.70;;;0.52;;
64682;SDS011;51107;47.652;19.016;2023-04-03T13:26:08;0.30;;;0.30;;
64682;SDS011;51107;47.652;19.016;2023-04-03T13:28:37;1.30;;;0.40;;
64682;SDS011;51107;47.652;19.016;2023-04-03T13:37:00;0.80;;;0.22;;
64682;SDS011;51107;47.652;19.016;2023-04-03T13:39:32;0.20;;;0.20;;
64682;SDS011;51107;47.652;19.016;2023-04-03T13:42:23;4.18;;;0.45;;
64682;SDS011;51107;47.652;19.016;2023-04-03T13:47:40;0.45;;;0.40;;
64682;SDS011;51107;47.652;19.016;2023-04-03T13:50:18;1.00;;;0.68;;
64682;SDS011;51107;47.652;19.016;2023-04-03T13:52:54;0.93;;;0.65;;
64682;SDS011;51107;47.652;19.016;2023-04-03T13:55:29;0.62;;;0.45;;
64682;SDS011;51107;47.652;19.016;2023-04-03T14:00:39;0.43;;;0.32;;
64682;SDS011;51107;47.652;19.016;2023-04-03T14:03:24;0.95;;;0.70;;
64682;SDS011;51107;47.652;19.016;2023-04-03T14:05:56;1.87;;;0.73;;
64682;SDS011;51107;47.652;19.016;2023-04-03T14:08:25;0.93;;;0.60;;
64682;SDS011;51107;47.652;19.016;2023-04-03T14:11:11;1.02;;;0.80;;
64682;SDS011;51107;47.652;19.016;2023-04-03T14:13:43;0.50;;;0.50;;
64682;SDS011;51107;47.652;19.016;2023-04-03T14:16:16;0.60;;;0.50;;
64682;SDS011;51107;47.652;19.016;2023-04-03T14:18:48;0.62;;;0.50;;
64682;SDS011;51107;47.652;19.016;2023-04-03T14:21:18;0.77;;;0.50;;
64682;SDS011;51107;47.652;19.016;2023-04-03T14:23:48;0.60;;;0.50;;
64682;SDS011;51107;47.652;19.016;2023-04-03T14:26:17;0.90;;;0.70;;
64682;SDS011;51107;47.652;19.016;2023-04-03T14:28:52;0.57;;;0.43;;
64682;SDS011;51107;47.652;19.016;2023-04-03T14:31:23;0.35;;;0.30;;
64682;SDS011;51107;47.652;19.016;2023-04-03T14:33:52;0.35;;;0.32;;
64682;SDS011;51107;47.652;19.016;2023-04-03T14:36:21;0.52;;;0.40;;
64682;SDS011;51107;47.652;19.016;2023-04-03T14:38:55;0.40;;;0.35;;
64682;SDS011;51107;47.652;19.016;2023-04-03T14:41:24;1.02;;;0.88;;
64682;SDS011;51107;47.652;19.016;2023-04-03T14:43:54;0.73;;;0.45;;
64682;SDS011;51107;47.652;19.016;2023-04-03T14:49:29;0.40;;;0.30;;
64682;SDS011;51107;47.652;19.016;2023-04-03T14:51:58;0.60;;;0.60;;
64682;SDS011;51107;47.652;19.016;2023-04-03T14:54:26;0.98;;;0.65;;
64682;SDS011;51107;47.652;19.016;2023-04-03T14:56:56;2.50;;;1.17;;
64682;SDS011;51107;47.652;19.016;2023-04-03T14:59:27;1.37;;;0.70;;
64682;SDS011;51107;47.652;19.016;2023-04-03T15:01:57;1.52;;;0.55;;
64682;SDS011;51107;47.652;19.016;2023-04-03T15:04:26;0.50;;;0.47;;
64682;SDS011;51107;47.652;19.016;2023-04-03T15:06:56;1.05;;;0.37;;
64682;SDS011;51107;47.652;19.016;2023-04-03T15:09:24;2.35;;;1.10;;
64682;SDS011;51107;47.652;19.016;2023-04-03T15:11:55;1.35;;;0.80;;
64682;SDS011;51107;47.652;19.016;2023-04-03T15:14:23;1.33;;;0.50;;
64682;SDS011;51107;47.652;19.016;2023-04-03T15:17:04;1.60;;;1.00;;
64682;SDS011;51107;47.652;19.016;2023-04-03T15:19:38;1.42;;;1.05;;
64682;SDS011;51107;47.652;19.016;2023-04-03T15:22:08;2.80;;;0.60;;
64682;SDS011;51107;47.652;19.016;2023-04-03T15:24:47;1.75;;;0.57;;
64682;SDS011;51107;47.652;19.016;2023-04-03T15:27:15;0.90;;;0.85;;
64682;SDS011;51107;47.652;19.016;2023-04-03T15:29:44;0.60;;;0.60;;
64682;SDS011;51107;47.652;19.016;2023-04-03T15:32:13;0.98;;;0.50;;
64682;SDS011;51107;47.652;19.016;2023-04-03T15:34:41;0.95;;;0.80;;
64682;SDS011;51107;47.652;19.016;2023-04-03T15:37:09;2.85;;;1.55;;
64682;SDS011;51107;47.652;19.016;2023-04-03T15:39:38;1.33;;;0.82;;
64682;SDS011;51107;47.652;19.016;2023-04-03T15:42:06;1.75;;;0.80;;
64682;SDS011;51107;47.652;19.016;2023-04-03T15:44:35;0.77;;;0.68;;
64682;SDS011;51107;47.652;19.016;2023-04-03T15:47:03;2.95;;;1.87;;
64682;SDS011;51107;47.652;19.016;2023-04-03T15:49:32;7.35;;;2.30;;
64682;SDS011;51107;47.652;19.016;2023-04-03T15:52:02;1.92;;;1.23;;
64682;SDS011;51107;47.652;19.016;2023-04-03T15:54:30;2.20;;;0.77;;
64682;SDS011;51107;47.652;19.016;2023-04-03T15:56:59;1.17;;;0.50;;
64682;SDS011;51107;47.652;19.016;2023-04-03T15:59:27;0.68;;;0.57;;
64682;SDS011;51107;47.652;19.016;2023-04-03T16:01:58;1.23;;;0.70;;
64682;SDS011;51107;47.652;19.016;2023-04-03T16:04:29;1.17;;;0.98;;
64682;SDS011;51107;47.652;19.016;2023-04-03T16:06:58;1.58;;;1.10;;
64682;SDS011;51107;47.652;19.016;2023-04-03T16:09:30;8.10;;;3.55;;
64682;SDS011;51107;47.652;19.016;2023-04-03T16:12:00;10.27;;;4.57;;
64682;SDS011;51107;47.652;19.016;2023-04-03T16:14:30;5.65;;;2.95;;
64682;SDS011;51107;47.652;19.016;2023-04-03T16:16:58;3.75;;;1.12;;
64682;SDS011;51107;47.652;19.016;2023-04-03T16:19:28;0.93;;;0.85;;
64682;SDS011;51107;47.652;19.016;2023-04-03T16:21:57;0.80;;;0.52;;
64682;SDS011;51107;47.652;19.016;2023-04-03T16:24:26;1.08;;;0.88;;
64682;SDS011;51107;47.652;19.016;2023-04-03T16:26:54;1.23;;;0.70;;
64682;SDS011;51107;47.652;19.016;2023-04-03T16:29:23;1.90;;;1.05;;
64682;SDS011;51107;47.652;19.016;2023-04-03T16:31:51;2.12;;;1.58;;
64682;SDS011;51107;47.652;19.016;2023-04-03T16:34:20;5.72;;;1.70;;
64682;SDS011;51107;47.652;19.016;2023-04-03T16:36:49;1.23;;;0.90;;
64682;SDS011;51107;47.652;19.016;2023-04-03T16:39:18;1.87;;;0.98;;
64682;SDS011;51107;47.652;19.016;2023-04-03T16:41:46;1.45;;;1.02;;
64682;SDS011;51107;47.652;19.016;2023-04-03T16:44:15;0.47;;;0.45;;
64682;SDS011;51107;47.652;19.016;2023-04-03T16:46:43;1.15;;;0.85;;
64682;SDS011;51107;47.652;19.016;2023-04-03T16:49:15;1.45;;;1.00;;
64682;SDS011;51107;47.652;19.016;2023-04-03T16:51:43;3.10;;;1.67;;
64682;SDS011;51107;47.652;19.016;2023-04-03T16:54:13;1.90;;;1.08;;
64682;SDS011;51107;47.652;19.016;2023-04-03T16:56:41;1.33;;;0.75;;
64682;SDS011;51107;47.652;19.016;2023-04-03T16:59:09;4.32;;;1.02;;